sensor_id;sensor_type;location;lat;lon;timestamp;pressure;altitude;pressure_sealevel;temperature;humidity
71974;BME280;59840;52.122;5.404;2022-12-18T00:01:25;103026.38;;;-3.75;97.94
71974;BME280;59840;52.122;5.404;2022-12-18T00:03:54;103022.97;;;-3.75;97.81
71974;BME280;59840;52.122;5.404;2022-12-18T00:06:22;103015.63;;;-3.81;97.94
71974;BME280;59840;52.122;5.404;2022-12-18T00:08:49;103002.94;;;-3.84;98.01
71974;BME280;59840;52.122;5.404;2022-12-18T00:11:18;103001.56;;;-3.90;97.86
71974;BME280;59840;52.122;5.404;2022-12-18T00:13:45;103000.94;;;-3.93;97.88
71974;BME280;59840;52.122;5.404;2022-12-18T00:16:14;102997.63;;;-3.95;97.98
71974;BME280;59840;52.122;5.404;2022-12-18T00:18:42;102996.97;;;-3.99;97.96
71974;BME280;59840;52.122;5.404;2022-12-18T00:21:10;103000.22;;;-4.10;97.97
71974;BME280;59840;52.122;5.404;2022-12-18T00:23:38;102996.91;;;-4.12;97.99
71974;BME280;59840;52.122;5.404;2022-12-18T00:26:17;102997.44;;;-4.07;97.99
71974;BME280;59840;52.122;5.404;2022-12-18T00:28:45;103011.91;;;-4.04;98.17
71974;BME280;59840;52.122;5.404;2022-12-18T00:31:15;103006.38;;;-4.12;97.91
71974;BME280;59840;52.122;5.404;2022-12-18T00:33:42;103009.97;;;-4.15;97.98
71974;BME280;59840;52.122;5.404;2022-12-18T00:36:15;102999.91;;;-4.18;97.87
71974;BME280;59840;52.122;5.404;2022-12-18T00:38:42;103003.38;;;-4.19;98.17
71974;BME280;59840;52.122;5.404;2022-12-18T00:41:11;103011.94;;;-4.18;98.09
71974;BME280;59840;52.122;5.404;2022-12-18T00:43:38;103004.81;;;-4.15;98.19
71974;BME280;59840;52.122;5.404;2022-12-18T00:46:06;103003.38;;;-4.19;98.01
71974;BME280;59840;52.122;5.404;2022-12-18T00:48:33;102997.22;;;-4.16;98.17
71974;BME280;59840;52.122;5.404;2022-12-18T00:50:59;102994.94;;;-4.21;98.01
71974;BME280;59840;52.122;5.404;2022-12-18T00:53:26;102996.66;;;-4.21;98.14
71974;BME280;59840;52.122;5.404;2022-12-18T00:55:52;102999.53;;;-4.26;98.16
71974;BME280;59840;52.122;5.404;2022-12-18T00:58:19;103000.63;;;-4.30;98.09
71974;BME280;59840;52.122;5.404;2022-12-18T01:00:45;103003.94;;;-4.28;98.09
71974;BME280;59840;52.122;5.404;2022-12-18T01:03:13;103000.63;;;-4.30;98.12
71974;BME280;59840;52.122;5.404;2022-12-18T01:05:42;102993.81;;;-4.31;98.21
71974;BME280;59840;52.122;5.404;2022-12-18T01:08:09;102992.91;;;-4.30;98.45
71974;BME280;59840;52.122;5.404;2022-12-18T01:10:36;102987.84;;;-4.31;98.19
71974;BME280;59840;52.122;5.404;2022-12-18T01:13:02;102987.03;;;-4.32;98.18
71974;BME280;59840;52.122;5.404;2022-12-18T01:15:29;102984.72;;;-4.36;98.26
71974;BME280;59840;52.122;5.404;2022-12-18T01:17:55;102990.50;;;-4.33;98.29
71974;BME280;59840;52.122;5.404;2022-12-18T01:20:22;102991.44;;;-4.34;98.12
71974;BME280;59840;52.122;5.404;2022-12-18T01:22:48;102995.56;;;-4.31;98.00
71974;BME280;59840;52.122;5.404;2022-12-18T01:25:15;102995.47;;;-4.30;98.10
71974;BME280;59840;52.122;5.404;2022-12-18T01:27:41;103007.63;;;-4.32;97.97
71974;BME280;59840;52.122;5.404;2022-12-18T01:30:08;103018.13;;;-4.35;97.80
71974;BME280;59840;52.122;5.404;2022-12-18T01:32:35;103008.75;;;-4.36;98.28
71974;BME280;59840;52.122;5.404;2022-12-18T01:35:01;103014.06;;;-4.39;97.97
71974;BME280;59840;52.122;5.404;2022-12-18T01:37:28;103008.38;;;-4.44;98.06
71974;BME280;59840;52.122;5.404;2022-12-18T01:39:55;103005.97;;;-4.47;98.13
71974;BME280;59840;52.122;5.404;2022-12-18T01:42:22;103011.31;;;-4.50;98.24
71974;BME280;59840;52.122;5.404;2022-12-18T01:49:58;103019.78;;;-4.62;97.74
71974;BME280;59840;52.122;5.404;2022-12-18T01:52:31;103015.94;;;-4.69;97.99
71974;BME280;59840;52.122;5.404;2022-12-18T01:55:00;103012.06;;;-4.77;97.99
71974;BME280;59840;52.122;5.404;2022-12-18T01:57:28;103014.97;;;-4.83;97.99
71974;BME280;59840;52.122;5.404;2022-12-18T01:59:59;103019.13;;;-4.94;97.90
71974;BME280;59840;52.122;5.404;2022-12-18T02:02:28;103020.47;;;-5.03;98.24
71974;BME280;59840;52.122;5.404;2022-12-18T02:04:55;103016.69;;;-5.12;97.98
71974;BME280;59840;52.122;5.404;2022-12-18T02:10:07;103021.00;;;-5.26;98.16
71974;BME280;59840;52.122;5.404;2022-12-18T02:12:57;103027.56;;;-5.36;98.39
71974;BME280;59840;52.122;5.404;2022-12-18T02:16:13;103019.44;;;-5.45;98.18
71974;BME280;59840;52.122;5.404;2022-12-18T02:18:36;103024.09;;;-5.51;98.15
71974;BME280;59840;52.122;5.404;2022-12-18T02:24:17;103023.56;;;-5.56;98.43
71974;BME280;59840;52.122;5.404;2022-12-18T02:26:45;103021.22;;;-5.61;98.34
71974;BME280;59840;52.122;5.404;2022-12-18T02:29:21;103024.81;;;-5.63;98.60
71974;BME280;59840;52.122;5.404;2022-12-18T02:31:52;103027.63;;;-5.68;98.64
71974;BME280;59840;52.122;5.404;2022-12-18T02:34:24;103031.28;;;-5.72;98.68
71974;BME280;59840;52.122;5.404;2022-12-18T02:36:53;103021.41;;;-5.80;98.63
71974;BME280;59840;52.122;5.404;2022-12-18T02:39:21;103015.75;;;-5.86;98.44
71974;BME280;59840;52.122;5.404;2022-12-18T02:41:50;103016.78;;;-5.89;98.68
71974;BME280;59840;52.122;5.404;2022-12-18T02:44:17;103018.41;;;-5.88;98.85
71974;BME280;59840;52.122;5.404;2022-12-18T02:46:46;103007.44;;;-5.90;98.84
71974;BME280;59840;52.122;5.404;2022-12-18T02:51:52;103004.47;;;-5.98;99.08
71974;BME280;59840;52.122;5.404;2022-12-18T02:54:39;103008.59;;;-5.95;99.05
71974;BME280;59840;52.122;5.404;2022-12-18T03:02:58;102997.00;;;-6.02;98.91
71974;BME280;59840;52.122;5.404;2022-12-18T03:05:37;102998.00;;;-6.05;99.22
71974;BME280;59840;52.122;5.404;2022-12-18T03:08:21;102988.03;;;-6.11;99.03
71974;BME280;59840;52.122;5.404;2022-12-18T03:10:54;102983.31;;;-6.19;99.06
71974;BME280;59840;52.122;5.404;2022-12-18T03:13:31;102984.22;;;-6.20;98.99
71974;BME280;59840;52.122;5.404;2022-12-18T03:16:00;102978.16;;;-6.19;99.36
71974;BME280;59840;52.122;5.404;2022-12-18T03:21:04;102982.56;;;-6.21;99.24
71974;BME280;59840;52.122;5.404;2022-12-18T03:23:38;102982.41;;;-6.33;98.94
71974;BME280;59840;52.122;5.404;2022-12-18T03:26:10;102978.41;;;-6.39;99.27
71974;BME280;59840;52.122;5.404;2022-12-18T03:28:42;102973.19;;;-6.37;99.00
71974;BME280;59840;52.122;5.404;2022-12-18T03:31:11;102970.94;;;-6.44;98.78
71974;BME280;59840;52.122;5.404;2022-12-18T03:33:41;102969.69;;;-6.52;99.00
71974;BME280;59840;52.122;5.404;2022-12-18T03:36:09;102965.91;;;-6.61;98.98
71974;BME280;59840;52.122;5.404;2022-12-18T03:38:35;102973.75;;;-6.64;99.16
71974;BME280;59840;52.122;5.404;2022-12-18T03:44:12;102960.50;;;-6.56;99.13
71974;BME280;59840;52.122;5.404;2022-12-18T03:49:38;102949.91;;;-6.50;99.36
71974;BME280;59840;52.122;5.404;2022-12-18T03:52:12;102954.28;;;-6.52;99.37
71974;BME280;59840;52.122;5.404;2022-12-18T03:54:41;102948.66;;;-6.59;99.16
71974;BME280;59840;52.122;5.404;2022-12-18T03:57:16;102954.78;;;-6.61;99.44
71974;BME280;59840;52.122;5.404;2022-12-18T03:59:46;102950.72;;;-6.65;99.19
71974;BME280;59840;52.122;5.404;2022-12-18T04:02:16;102949.22;;;-6.69;99.12
71974;BME280;59840;52.122;5.404;2022-12-18T04:04:45;102953.44;;;-6.68;99.08
71974;BME280;59840;52.122;5.404;2022-12-18T04:07:14;102948.31;;;-6.68;99.08
71974;BME280;59840;52.122;5.404;2022-12-18T04:09:43;102940.78;;;-6.71;98.97
71974;BME280;59840;52.122;5.404;2022-12-18T04:12:11;102940.94;;;-6.74;99.06
71974;BME280;59840;52.122;5.404;2022-12-18T04:14:39;102935.78;;;-6.74;99.26
71974;BME280;59840;52.122;5.404;2022-12-18T04:17:05;102930.66;;;-6.74;99.17
71974;BME280;59840;52.122;5.404;2022-12-18T04:19:32;102922.97;;;-6.74;99.30
71974;BME280;59840;52.122;5.404;2022-12-18T04:21:59;102917.00;;;-6.75;99.34
71974;BME280;59840;52.122;5.404;2022-12-18T04:24:25;102916.16;;;-6.76;99.20
71974;BME280;59840;52.122;5.404;2022-12-18T04:26:52;102923.72;;;-6.72;98.94
71974;BME280;59840;52.122;5.404;2022-12-18T04:29:18;102921.16;;;-6.72;99.20
71974;BME280;59840;52.122;5.404;2022-12-18T04:31:45;102914.44;;;-6.75;98.91
71974;BME280;59840;52.122;5.404;2022-12-18T04:34:11;102913.75;;;-6.79;99.06
71974;BME280;59840;52.122;5.404;2022-12-18T04:36:38;102914.59;;;-6.78;99.34
71974;BME280;59840;52.122;5.404;2022-12-18T04:39:04;102924.03;;;-6.79;99.09
71974;BME280;59840;52.122;5.404;2022-12-18T04:41:31;102923.28;;;-6.81;98.90
71974;BME280;59840;52.122;5.404;2022-12-18T04:43:57;102920.72;;;-6.81;99.04
71974;BME280;59840;52.122;5.404;2022-12-18T04:46:24;102925.25;;;-6.86;98.79
71974;BME280;59840;52.122;5.404;2022-12-18T04:48:50;102939.81;;;-6.86;98.72
71974;BME280;59840;52.122;5.404;2022-12-18T04:51:17;102943.38;;;-6.89;98.86
71974;BME280;59840;52.122;5.404;2022-12-18T04:53:51;102948.50;;;-6.89;98.96
71974;BME280;59840;52.122;5.404;2022-12-18T04:56:17;102946.53;;;-6.84;99.09
71974;BME280;59840;52.122;5.404;2022-12-18T04:58:44;102949.94;;;-6.83;98.96
71974;BME280;59840;52.122;5.404;2022-12-18T05:01:12;102949.09;;;-6.84;99.02
71974;BME280;59840;52.122;5.404;2022-12-18T05:03:40;102951.59;;;-6.82;99.17
71974;BME280;59840;52.122;5.404;2022-12-18T05:06:07;102957.31;;;-6.77;99.15
71974;BME280;59840;52.122;5.404;2022-12-18T05:08:34;102972.72;;;-6.77;98.98
71974;BME280;59840;52.122;5.404;2022-12-18T05:11:03;102965.09;;;-6.79;98.93
71974;BME280;59840;52.122;5.404;2022-12-18T05:13:31;102962.59;;;-6.80;98.79
71974;BME280;59840;52.122;5.404;2022-12-18T05:15:58;102968.72;;;-6.83;98.75
71974;BME280;59840;52.122;5.404;2022-12-18T05:18:25;102980.13;;;-6.88;98.69
71974;BME280;59840;52.122;5.404;2022-12-18T05:20:52;102975.91;;;-6.89;98.71
71974;BME280;59840;52.122;5.404;2022-12-18T05:23:20;102980.22;;;-6.90;98.69
71974;BME280;59840;52.122;5.404;2022-12-18T05:25:53;102980.28;;;-6.91;98.68
71974;BME280;59840;52.122;5.404;2022-12-18T05:28:21;102985.59;;;-6.94;98.91
71974;BME280;59840;52.122;5.404;2022-12-18T05:30:52;102993.38;;;-6.96;98.55
71974;BME280;59840;52.122;5.404;2022-12-18T05:33:19;102997.84;;;-6.99;98.72
71974;BME280;59840;52.122;5.404;2022-12-18T05:35:51;102992.84;;;-7.02;98.97
71974;BME280;59840;52.122;5.404;2022-12-18T05:38:19;102995.63;;;-7.07;98.96
71974;BME280;59840;52.122;5.404;2022-12-18T05:40:47;102979.34;;;-7.06;98.99
71974;BME280;59840;52.122;5.404;2022-12-18T05:43:14;102981.84;;;-7.04;98.66
71974;BME280;59840;52.122;5.404;2022-12-18T05:45:47;102974.81;;;-7.01;98.90
71974;BME280;59840;52.122;5.404;2022-12-18T05:48:14;102973.91;;;-7.00;98.67
71974;BME280;59840;52.122;5.404;2022-12-18T05:50:42;102960.25;;;-7.00;98.64
71974;BME280;59840;52.122;5.404;2022-12-18T05:53:13;102962.75;;;-6.99;98.83
71974;BME280;59840;52.122;5.404;2022-12-18T05:55:42;102964.41;;;-6.98;98.79
71974;BME280;59840;52.122;5.404;2022-12-18T05:58:10;102960.16;;;-6.99;98.79
71974;BME280;59840;52.122;5.404;2022-12-18T06:00:39;102952.47;;;-6.99;98.60
71974;BME280;59840;52.122;5.404;2022-12-18T06:03:07;102960.16;;;-6.99;98.49
71974;BME280;59840;52.122;5.404;2022-12-18T06:05:36;102948.16;;;-6.98;98.60
71974;BME280;59840;52.122;5.404;2022-12-18T06:08:03;102953.16;;;-6.95;98.73
71974;BME280;59840;52.122;5.404;2022-12-18T06:10:30;102949.75;;;-6.96;98.37
71974;BME280;59840;52.122;5.404;2022-12-18T06:12:57;102946.44;;;-6.98;98.57
71974;BME280;59840;52.122;5.404;2022-12-18T06:15:24;102942.38;;;-7.02;98.40
71974;BME280;59840;52.122;5.404;2022-12-18T06:17:51;102943.28;;;-7.03;98.67
71974;BME280;59840;52.122;5.404;2022-12-18T06:20:18;102935.81;;;-7.07;98.36
71974;BME280;59840;52.122;5.404;2022-12-18T06:22:45;102941.91;;;-7.10;98.64
71974;BME280;59840;52.122;5.404;2022-12-18T06:25:11;102928.50;;;-7.15;98.33
71974;BME280;59840;52.122;5.404;2022-12-18T06:27:38;102929.31;;;-7.15;98.32
71974;BME280;59840;52.122;5.404;2022-12-18T06:30:05;102936.13;;;-7.14;98.49
71974;BME280;59840;52.122;5.404;2022-12-18T06:32:32;102941.41;;;-7.17;98.47
71974;BME280;59840;52.122;5.404;2022-12-18T06:34:59;102929.56;;;-7.19;98.56
71974;BME280;59840;52.122;5.404;2022-12-18T06:37:25;102923.66;;;-7.21;98.48
71974;BME280;59840;52.122;5.404;2022-12-18T06:39:55;102920.34;;;-7.23;98.46
71974;BME280;59840;52.122;5.404;2022-12-18T06:42:23;102917.88;;;-7.25;98.51
71974;BME280;59840;52.122;5.404;2022-12-18T06:44:50;102917.94;;;-7.26;98.58
71974;BME280;59840;52.122;5.404;2022-12-18T06:47:16;102923.06;;;-7.26;98.36
71974;BME280;59840;52.122;5.404;2022-12-18T06:49:43;102911.16;;;-7.27;98.42
71974;BME280;59840;52.122;5.404;2022-12-18T06:52:09;102897.59;;;-7.29;98.08
71974;BME280;59840;52.122;5.404;2022-12-18T06:54:36;102898.44;;;-7.29;98.62
71974;BME280;59840;52.122;5.404;2022-12-18T06:57:03;102901.81;;;-7.28;98.33
71974;BME280;59840;52.122;5.404;2022-12-18T06:59:29;102891.56;;;-7.28;98.33
71974;BME280;59840;52.122;5.404;2022-12-18T07:01:56;102893.31;;;-7.29;98.12
71974;BME280;59840;52.122;5.404;2022-12-18T07:04:28;102886.44;;;-7.28;98.65
71974;BME280;59840;52.122;5.404;2022-12-18T07:06:54;102881.47;;;-7.31;98.24
71974;BME280;59840;52.122;5.404;2022-12-18T07:09:21;102884.03;;;-7.31;98.45
71974;BME280;59840;52.122;5.404;2022-12-18T07:11:47;102886.66;;;-7.33;98.23
71974;BME280;59840;52.122;5.404;2022-12-18T07:14:13;102882.53;;;-7.35;98.00
71974;BME280;59840;52.122;5.404;2022-12-18T07:16:40;102879.13;;;-7.36;98.25
71974;BME280;59840;52.122;5.404;2022-12-18T07:19:07;102871.59;;;-7.39;98.04
71974;BME280;59840;52.122;5.404;2022-12-18T07:21:33;102874.22;;;-7.40;98.44
71974;BME280;59840;52.122;5.404;2022-12-18T07:24:00;102877.41;;;-7.35;98.54
71974;BME280;59840;52.122;5.404;2022-12-18T07:26:26;102879.81;;;-7.32;98.13
71974;BME280;59840;52.122;5.404;2022-12-18T07:28:56;102873.78;;;-7.31;98.13
71974;BME280;59840;52.122;5.404;2022-12-18T07:31:24;102869.63;;;-7.34;98.42
71974;BME280;59840;52.122;5.404;2022-12-18T07:33:52;102867.81;;;-7.32;98.23
71974;BME280;59840;52.122;5.404;2022-12-18T07:36:19;102862.59;;;-7.30;98.35
71974;BME280;59840;52.122;5.404;2022-12-18T07:38:49;102857.28;;;-7.27;98.24
71974;BME280;59840;52.122;5.404;2022-12-18T07:41:18;102854.91;;;-7.30;98.36
71974;BME280;59840;52.122;5.404;2022-12-18T07:43:45;102859.13;;;-7.29;98.00
71974;BME280;59840;52.122;5.404;2022-12-18T07:46:12;102849.03;;;-7.32;98.18
71974;BME280;59840;52.122;5.404;2022-12-18T07:48:43;102843.16;;;-7.34;98.42
71974;BME280;59840;52.122;5.404;2022-12-18T07:51:15;102834.63;;;-7.35;97.90
71974;BME280;59840;52.122;5.404;2022-12-18T07:53:43;102834.56;;;-7.33;98.08
71974;BME280;59840;52.122;5.404;2022-12-18T07:56:11;102828.44;;;-7.31;98.05
71974;BME280;59840;52.122;5.404;2022-12-18T07:58:56;102821.31;;;-7.26;98.08
71974;BME280;59840;52.122;5.404;2022-12-18T08:01:23;102831.19;;;-7.18;98.11
71974;BME280;59840;52.122;5.404;2022-12-18T08:03:50;102825.13;;;-7.17;97.91
71974;BME280;59840;52.122;5.404;2022-12-18T08:06:18;102817.22;;;-7.13;97.84
71974;BME280;59840;52.122;5.404;2022-12-18T08:08:53;102819.84;;;-7.14;97.70
71974;BME280;59840;52.122;5.404;2022-12-18T08:11:20;102806.88;;;-7.11;97.94
71974;BME280;59840;52.122;5.404;2022-12-18T08:13:47;102809.13;;;-7.05;97.89
71974;BME280;59840;52.122;5.404;2022-12-18T08:16:14;102813.69;;;-6.94;97.61
71974;BME280;59840;52.122;5.404;2022-12-18T08:18:41;102821.19;;;-6.91;97.83
71974;BME280;59840;52.122;5.404;2022-12-18T08:21:12;102811.66;;;-6.89;97.54
71974;BME280;59840;52.122;5.404;2022-12-18T08:23:39;102808.13;;;-6.87;97.51
71974;BME280;59840;52.122;5.404;2022-12-18T08:26:10;102815.50;;;-6.81;97.59
71974;BME280;59840;52.122;5.404;2022-12-18T08:28:36;102827.25;;;-6.77;97.18
71974;BME280;59840;52.122;5.404;2022-12-18T08:31:04;102842.41;;;-6.72;96.96
71974;BME280;59840;52.122;5.404;2022-12-18T08:33:31;102846.38;;;-6.66;97.32
71974;BME280;59840;52.122;5.404;2022-12-18T08:35:59;102851.34;;;-6.63;96.80
71974;BME280;59840;52.122;5.404;2022-12-18T08:38:25;102839.44;;;-6.64;97.17
71974;BME280;59840;52.122;5.404;2022-12-18T08:41:02;102839.25;;;-6.61;96.68
71974;BME280;59840;52.122;5.404;2022-12-18T08:43:29;102839.06;;;-6.58;96.86
71974;BME280;59840;52.122;5.404;2022-12-18T08:46:15;102831.28;;;-6.57;97.11
71974;BME280;59840;52.122;5.404;2022-12-18T08:48:41;102823.34;;;-6.52;96.70
71974;BME280;59840;52.122;5.404;2022-12-18T08:51:08;102828.31;;;-6.49;96.89
71974;BME280;59840;52.122;5.404;2022-12-18T08:53:36;102835.66;;;-6.43;96.63
71974;BME280;59840;52.122;5.404;2022-12-18T08:56:04;102832.94;;;-6.40;96.75
71974;BME280;59840;52.122;5.404;2022-12-18T08:58:30;102823.81;;;-6.30;96.73
71974;BME280;59840;52.122;5.404;2022-12-18T09:01:05;102826.69;;;-6.20;96.33
71974;BME280;59840;52.122;5.404;2022-12-18T09:03:32;102842.31;;;-6.09;96.59
71974;BME280;59840;52.122;5.404;2022-12-18T09:05:59;102842.81;;;-6.02;96.50
71974;BME280;59840;52.122;5.404;2022-12-18T09:08:26;102845.78;;;-5.94;95.92
71974;BME280;59840;52.122;5.404;2022-12-18T09:10:52;102831.59;;;-5.87;96.08
71974;BME280;59840;52.122;5.404;2022-12-18T09:13:19;102830.16;;;-5.77;96.12
71974;BME280;59840;52.122;5.404;2022-12-18T09:15:48;102830.56;;;-5.69;96.00
71974;BME280;59840;52.122;5.404;2022-12-18T09:18:17;102836.16;;;-5.62;95.71
71974;BME280;59840;52.122;5.404;2022-12-18T09:20:44;102825.31;;;-5.53;95.93
71974;BME280;59840;52.122;5.404;2022-12-18T09:23:11;102830.75;;;-5.44;95.72
71974;BME280;59840;52.122;5.404;2022-12-18T09:25:38;102819.81;;;-5.33;95.85
71974;BME280;59840;52.122;5.404;2022-12-18T09:28:09;102831.31;;;-5.24;96.02
71974;BME280;59840;52.122;5.404;2022-12-18T09:30:40;102832.41;;;-5.14;96.14
71974;BME280;59840;52.122;5.404;2022-12-18T09:33:07;102821.72;;;-5.08;95.67
71974;BME280;59840;52.122;5.404;2022-12-18T09:35:41;102823.94;;;-5.02;95.62
71974;BME280;59840;52.122;5.404;2022-12-18T09:38:12;102813.28;;;-4.96;95.50
71974;BME280;59840;52.122;5.404;2022-12-18T09:40:45;102807.66;;;-4.88;95.34
71974;BME280;59840;52.122;5.404;2022-12-18T09:43:18;102798.69;;;-4.83;95.48
71974;BME280;59840;52.122;5.404;2022-12-18T09:45:49;102806.03;;;-4.77;95.17
71974;BME280;59840;52.122;5.404;2022-12-18T09:48:23;102806.31;;;-4.67;95.52
71974;BME280;59840;52.122;5.404;2022-12-18T09:50:51;102798.19;;;-4.61;95.43
71974;BME280;59840;52.122;5.404;2022-12-18T09:53:24;102785.66;;;-4.53;95.40
71974;BME280;59840;52.122;5.404;2022-12-18T09:55:53;102773.19;;;-4.46;95.59
71974;BME280;59840;52.122;5.404;2022-12-18T09:58:35;102776.09;;;-4.38;95.29
71974;BME280;59840;52.122;5.404;2022-12-18T10:01:11;102779.00;;;-4.30;95.69
71974;BME280;59840;52.122;5.404;2022-12-18T10:03:38;102778.31;;;-4.19;95.67
71974;BME280;59840;52.122;5.404;2022-12-18T10:06:15;102777.59;;;-4.09;95.67
71974;BME280;59840;52.122;5.404;2022-12-18T10:08:59;102773.59;;;-4.00;95.80
71974;BME280;59840;52.122;5.404;2022-12-18T10:20:24;102757.59;;;-3.67;95.69
71974;BME280;59840;52.122;5.404;2022-12-18T10:25:25;102771.22;;;-3.52;95.30
71974;BME280;59840;52.122;5.404;2022-12-18T10:27:56;102773.25;;;-3.45;95.68
71974;BME280;59840;52.122;5.404;2022-12-18T10:30:25;102763.44;;;-3.40;95.65
71974;BME280;59840;52.122;5.404;2022-12-18T10:32:52;102762.41;;;-3.37;95.20
71974;BME280;59840;52.122;5.404;2022-12-18T10:35:22;102754.34;;;-3.32;95.51
71974;BME280;59840;52.122;5.404;2022-12-18T10:43:26;102755.66;;;-3.14;95.38
71974;BME280;59840;52.122;5.404;2022-12-18T10:48:30;102736.00;;;-3.04;95.32
71974;BME280;59840;52.122;5.404;2022-12-18T10:50:57;102729.69;;;-3.00;95.16
71974;BME280;59840;52.122;5.404;2022-12-18T10:53:39;102729.34;;;-2.95;95.20
71974;BME280;59840;52.122;5.404;2022-12-18T10:56:09;102732.34;;;-2.89;95.14
71974;BME280;59840;52.122;5.404;2022-12-18T10:58:38;102725.09;;;-2.84;94.79
71974;BME280;59840;52.122;5.404;2022-12-18T11:01:15;102721.25;;;-2.78;94.34
71974;BME280;59840;52.122;5.404;2022-12-18T11:03:45;102708.19;;;-2.77;94.43
71974;BME280;59840;52.122;5.404;2022-12-18T11:06:17;102713.72;;;-2.70;94.07
71974;BME280;59840;52.122;5.404;2022-12-18T11:08:57;102701.41;;;-2.66;94.17
71974;BME280;59840;52.122;5.404;2022-12-18T11:11:25;102702.72;;;-2.61;94.39
71974;BME280;59840;52.122;5.404;2022-12-18T11:14:05;102694.75;;;-2.58;94.04
71974;BME280;59840;52.122;5.404;2022-12-18T11:16:35;102696.28;;;-2.55;94.03
71974;BME280;59840;52.122;5.404;2022-12-18T11:19:40;102699.38;;;-2.50;93.97
71974;BME280;59840;52.122;5.404;2022-12-18T11:22:23;102684.09;;;-2.42;93.88
71974;BME280;59840;52.122;5.404;2022-12-18T11:24:57;102676.13;;;-2.39;93.07
71974;BME280;59840;52.122;5.404;2022-12-18T11:27:54;102672.13;;;-2.32;93.23
71974;BME280;59840;52.122;5.404;2022-12-18T11:30:22;102674.28;;;-2.26;93.05
71974;BME280;59840;52.122;5.404;2022-12-18T11:36:01;102678.53;;;-2.14;92.69
71974;BME280;59840;52.122;5.404;2022-12-18T11:38:40;102680.63;;;-2.08;92.97
71974;BME280;59840;52.122;5.404;2022-12-18T11:41:23;102678.75;;;-2.06;92.52
71974;BME280;59840;52.122;5.404;2022-12-18T11:44:16;102675.94;;;-2.03;92.25
71974;BME280;59840;52.122;5.404;2022-12-18T11:46:51;102684.88;;;-1.95;91.93
71974;BME280;59840;52.122;5.404;2022-12-18T11:49:33;102662.06;;;-1.90;91.93
71974;BME280;59840;52.122;5.404;2022-12-18T11:54:27;102663.25;;;-1.83;91.61
71974;BME280;59840;52.122;5.404;2022-12-18T12:05:25;102638.56;;;-1.76;90.79
71974;BME280;59840;52.122;5.404;2022-12-18T12:16:02;102610.53;;;-1.71;90.24
71974;BME280;59840;52.122;5.404;2022-12-18T12:24:30;102599.47;;;-1.62;90.25
71974;BME280;59840;52.122;5.404;2022-12-18T12:30:07;102591.09;;;-1.54;90.06
71974;BME280;59840;52.122;5.404;2022-12-18T12:35:12;102583.78;;;-1.49;89.39
71974;BME280;59840;52.122;5.404;2022-12-18T12:40:28;102585.44;;;-1.48;88.74
71974;BME280;59840;52.122;5.404;2022-12-18T12:46:00;102579.06;;;-1.44;88.64
71974;BME280;59840;52.122;5.404;2022-12-18T12:50:56;102557.28;;;-1.42;88.65
71974;BME280;59840;52.122;5.404;2022-12-18T12:53:31;102560.44;;;-1.38;88.31
71974;BME280;59840;52.122;5.404;2022-12-18T12:56:01;102562.88;;;-1.37;88.12
71974;BME280;59840;52.122;5.404;2022-12-18T13:01:08;102549.00;;;-1.36;88.40
71974;BME280;59840;52.122;5.404;2022-12-18T13:03:54;102550.53;;;-1.33;88.33
71974;BME280;59840;52.122;5.404;2022-12-18T13:06:33;102549.59;;;-1.32;88.25
71974;BME280;59840;52.122;5.404;2022-12-18T13:09:08;102548.75;;;-1.32;87.84
71974;BME280;59840;52.122;5.404;2022-12-18T13:11:43;102540.03;;;-1.31;87.87
71974;BME280;59840;52.122;5.404;2022-12-18T13:19:50;102550.97;;;-1.28;87.61
71974;BME280;59840;52.122;5.404;2022-12-18T13:22:28;102556.16;;;-1.28;87.33
71974;BME280;59840;52.122;5.404;2022-12-18T13:24:57;102555.09;;;-1.25;87.87
71974;BME280;59840;52.122;5.404;2022-12-18T13:38:36;102528.25;;;-1.24;87.79
71974;BME280;59840;52.122;5.404;2022-12-18T13:43:49;102525.91;;;-1.27;87.51
71974;BME280;59840;52.122;5.404;2022-12-18T13:46:30;102520.72;;;-1.27;87.11
71974;BME280;59840;52.122;5.404;2022-12-18T13:51:43;102505.19;;;-1.27;87.45
71974;BME280;59840;52.122;5.404;2022-12-18T13:54:34;102496.59;;;-1.28;87.01
71974;BME280;59840;52.122;5.404;2022-12-18T13:57:02;102498.38;;;-1.28;87.07
71974;BME280;59840;52.122;5.404;2022-12-18T13:59:37;102497.53;;;-1.29;87.01
71974;BME280;59840;52.122;5.404;2022-12-18T14:02:20;102496.59;;;-1.28;87.02
71974;BME280;59840;52.122;5.404;2022-12-18T14:04:49;102491.28;;;-1.26;87.21
71974;BME280;59840;52.122;5.404;2022-12-18T14:07:19;102487.06;;;-1.27;87.12
71974;BME280;59840;52.122;5.404;2022-12-18T14:09:56;102480.81;;;-1.25;86.92
71974;BME280;59840;52.122;5.404;2022-12-18T14:12:48;102482.59;;;-1.25;87.01
71974;BME280;59840;52.122;5.404;2022-12-18T14:15:34;102477.41;;;-1.25;87.06
71974;BME280;59840;52.122;5.404;2022-12-18T14:18:03;102469.63;;;-1.25;87.40
71974;BME280;59840;52.122;5.404;2022-12-18T14:20:35;102467.03;;;-1.25;87.29
71974;BME280;59840;52.122;5.404;2022-12-18T14:23:01;102466.09;;;-1.24;86.79
71974;BME280;59840;52.122;5.404;2022-12-18T14:25:29;102457.50;;;-1.25;86.77
71974;BME280;59840;52.122;5.404;2022-12-18T14:28:22;102450.56;;;-1.24;86.56
71974;BME280;59840;52.122;5.404;2022-12-18T14:30:49;102451.25;;;-1.22;86.60
71974;BME280;59840;52.122;5.404;2022-12-18T14:33:18;102439.13;;;-1.22;86.67
71974;BME280;59840;52.122;5.404;2022-12-18T14:41:12;102440.91;;;-1.22;86.70
71974;BME280;59840;52.122;5.404;2022-12-18T14:43:44;102437.47;;;-1.23;86.04
71974;BME280;59840;52.122;5.404;2022-12-18T14:46:36;102437.59;;;-1.24;86.35
71974;BME280;59840;52.122;5.404;2022-12-18T14:49:17;102437.59;;;-1.24;86.12
71974;BME280;59840;52.122;5.404;2022-12-18T14:51:51;102422.06;;;-1.24;85.90
71974;BME280;59840;52.122;5.404;2022-12-18T14:54:20;102424.66;;;-1.24;86.09
71974;BME280;59840;52.122;5.404;2022-12-18T14:56:49;102417.03;;;-1.26;86.09
71974;BME280;59840;52.122;5.404;2022-12-18T14:59:25;102429.03;;;-1.25;85.32
71974;BME280;59840;52.122;5.404;2022-12-18T15:02:20;102429.16;;;-1.26;85.61
71974;BME280;59840;52.122;5.404;2022-12-18T15:05:14;102423.28;;;-1.28;85.94
71974;BME280;59840;52.122;5.404;2022-12-18T15:07:49;102423.28;;;-1.28;85.68